Time;durP1;ratioP1;P1;durP2;ratioP2;P2;SDS_P1;SDS_P2;PMS_P1;PMS_P2;Temp;Humidity;BMP_temperature;BMP_pressure;BME280_temperature;BME280_humidity;BME280_pressure;Samples;Min_cycle;Max_cycle;Signal;HPM_P1;HPM_P2
2023/03/18 00:01:06;;;;;;;4.47;3.10;;;;;;;4.89;42.14;97561.75;6289613;28;20232;-36
2023/03/18 00:04:08;;;;;;;5.73;2.77;;;;;;;4.91;42.29;97558.88;6270419;28;20238;-36
2023/03/18 00:07:10;;;;;;;5.83;3.13;;;;;;;4.90;42.34;97557.25;6294493;28;20227;-36
2023/03/18 00:10:13;;;;;;;5.33;3.50;;;;;;;4.61;42.10;97516.34;6290156;28;20239;-36
2023/03/18 00:13:15;;;;;;;5.27;3.10;;;;;;;4.78;43.17;97559.75;6294020;28;20852;-37
2023/03/18 00:16:18;;;;;;;5.90;3.53;;;;;;;4.61;43.33;97538.25;6289530;28;20299;-36
2023/03/18 00:19:23;;;;;;;3.93;2.70;;;;;;;4.60;43.46;97549.84;6292894;28;20703;-37
2023/03/18 00:22:25;;;;;;;4.87;3.10;;;;;;;4.61;43.16;97553.28;6290986;28;20387;-37
2023/03/18 00:25:27;;;;;;;5.53;3.20;;;;;;;4.70;42.65;97557.31;6272927;28;20649;-36
2023/03/18 00:28:30;;;;;;;3.97;3.00;;;;;;;4.69;42.45;97562.81;6289512;28;20728;-36
2023/03/18 00:31:32;;;;;;;3.87;2.93;;;;;;;4.69;42.66;97552.25;6290847;28;20261;-36
2023/03/18 00:34:34;;;;;;;6.27;2.97;;;;;;;4.60;43.24;97556.94;6290076;28;20230;-36
2023/03/18 00:37:37;;;;;;;4.33;2.90;;;;;;;4.56;43.17;97561.81;6289863;28;20764;-36
2023/03/18 00:40:42;;;;;;;4.70;3.57;;;;;;;4.50;43.26;97554.72;6292676;28;20233;-36
2023/03/18 00:43:51;;;;;;;4.40;3.00;;;;;;;4.41;43.90;97553.31;6291542;28;20706;-37
2023/03/18 00:46:53;;;;;;;3.40;2.83;;;;;;;4.51;42.30;97560.81;6294295;28;20222;-37
2023/03/18 00:49:56;;;;;;;5.77;3.20;;;;;;;4.26;43.28;97521.91;6294550;28;20324;-36
2023/03/18 00:52:58;;;;;;;3.73;2.70;;;;;;;4.46;42.83;97545.59;6274480;28;20221;-36
2023/03/18 00:56:00;;;;;;;5.70;2.93;;;;;;;4.23;42.63;97508.31;6290947;28;20232;-36
2023/03/18 00:59:03;;;;;;;5.93;2.73;;;;;;;4.45;43.22;97544.00;6274469;28;20244;-36
2023/03/18 01:02:05;;;;;;;6.60;3.23;;;;;;;4.42;43.25;97543.59;6272730;28;20234;-36
2023/03/18 01:05:10;;;;;;;5.63;3.40;;;;;;;4.42;43.54;97546.22;6290575;28;20221;-36
2023/03/18 01:08:12;;;;;;;3.73;2.50;;;;;;;4.39;43.50;97542.19;6288522;28;20254;-36
2023/03/18 01:11:15;;;;;;;4.00;3.00;;;;;;;4.23;44.53;97538.13;6289403;28;20696;-36
2023/03/18 01:14:17;;;;;;;5.53;2.87;;;;;;;4.13;44.18;97535.09;6292008;28;20230;-36
2023/03/18 01:17:20;;;;;;;5.50;3.10;;;;;;;3.44;45.03;97449.38;6275172;28;20241;-36
2023/03/18 01:20:23;;;;;;;4.47;2.70;;;;;;;4.00;44.78;97540.41;6289032;28;20244;-36
2023/03/18 01:23:29;;;;;;;4.00;2.63;;;;;;;3.94;45.04;97523.56;6288380;28;20238;-37
2023/03/18 01:26:32;;;;;;;4.00;3.03;;;;;;;3.85;45.46;97522.97;6272361;28;20815;-36
2023/03/18 01:29:35;;;;;;;3.60;2.70;;;;;;;3.78;45.55;97530.03;6270957;28;20690;-37
2023/03/18 01:32:40;;;;;;;4.70;3.07;;;;;;;3.71;45.60;97531.88;6276630;28;20236;-36
2023/03/18 01:35:42;;;;;;;6.57;3.00;;;;;;;3.72;45.02;97528.22;6286328;28;20230;-37
2023/03/18 01:38:44;;;;;;;6.37;2.77;;;;;;;3.78;45.12;97534.50;6291869;28;20236;-36
2023/03/18 01:41:49;;;;;;;3.50;2.70;;;;;;;3.78;45.34;97523.97;6273787;28;20233;-36
2023/03/18 01:45:18;;;;;;;5.20;2.80;;;;;;;3.68;45.01;97529.63;6272381;28;20230;-36
2023/03/18 01:48:25;;;;;;;7.40;3.47;;;;;;;3.59;45.82;97528.19;6279338;28;20359;-36
2023/03/18 01:51:34;;;;;;;4.63;3.23;;;;;;;3.58;45.08;97523.94;6274014;28;20305;-36
2023/03/18 01:54:42;;;;;;;5.43;2.83;;;;;;;3.63;45.79;97524.16;6290553;28;20225;-36
2023/03/18 01:57:45;;;;;;;6.83;3.13;;;;;;;3.65;45.34;97524.78;6273731;28;20233;-37
2023/03/18 02:00:54;;;;;;;4.60;2.80;;;;;;;3.46;45.79;97499.22;6267520;28;20388;-37
2023/03/18 02:03:59;;;;;;;4.93;2.93;;;;;;;3.56;46.56;97529.41;6278584;28;20338;-37
2023/03/18 02:07:01;;;;;;;4.73;3.13;;;;;;;3.52;46.71;97532.66;6273636;28;20233;-37
2023/03/18 02:10:19;;;;;;;6.00;2.90;;;;;;;3.49;46.79;97543.56;6265011;28;20226;-36
2023/03/18 02:13:23;;;;;;;4.73;2.87;;;;;;;3.49;45.96;97533.84;6268082;28;20226;-36
2023/03/18 02:16:43;;;;;;;8.47;2.73;;;;;;;3.48;45.79;97536.69;6275946;28;20658;-36
2023/03/18 02:19:53;;;;;;;6.60;3.20;;;;;;;2.93;46.66;97463.06;6270937;28;20227;-36
2023/03/18 02:23:23;;;;;;;3.60;2.60;;;;;;;3.45;46.24;97537.06;6270535;28;20366;-37
2023/03/18 02:26:31;;;;;;;5.57;3.30;;;;;;;3.46;45.38;97534.28;6271540;28;20229;-37
2023/03/18 02:29:36;;;;;;;3.73;2.70;;;;;;;3.34;45.74;97515.59;6279497;28;20234;-36
2023/03/18 02:32:47;;;;;;;3.70;2.50;;;;;;;3.60;44.97;97541.19;6278072;28;20600;-37
2023/03/18 02:35:54;;;;;;;4.13;2.87;;;;;;;3.69;44.52;97533.06;6297273;28;20229;-36
2023/03/18 02:38:59;;;;;;;4.77;3.27;;;;;;;3.82;43.47;97527.81;6270339;28;20710;-36
2023/03/18 02:42:01;;;;;;;5.37;3.30;;;;;;;3.94;43.33;97539.38;6272952;28;20252;-35
2023/03/18 02:45:11;;;;;;;7.13;3.23;;;;;;;3.88;43.90;97542.81;6269215;28;20222;-36
2023/03/18 02:48:21;;;;;;;6.33;3.27;;;;;;;3.91;43.26;97547.69;6269784;28;20219;-36
2023/03/18 02:51:25;;;;;;;3.70;2.80;;;;;;;3.94;42.67;97535.91;6265288;28;20572;-36
2023/03/18 02:54:29;;;;;;;5.13;2.70;;;;;;;4.01;43.13;97555.19;6267274;28;20238;-37
2023/03/18 02:57:31;;;;;;;5.87;3.13;;;;;;;4.07;42.17;97559.63;6268522;28;20241;-37
2023/03/18 03:00:34;;;;;;;4.77;3.10;;;;;;;3.99;42.31;97549.28;6270932;28;21037;-37
2023/03/18 03:03:37;;;;;;;5.23;2.90;;;;;;;3.96;42.51;97563.69;6270502;28;20284;-36
2023/03/18 03:06:41;;;;;;;4.60;3.00;;;;;;;3.99;42.48;97570.38;6272190;28;20612;-37
2023/03/18 03:09:45;;;;;;;4.93;3.00;;;;;;;4.02;42.26;97573.44;6271497;28;20234;-36
2023/03/18 03:12:48;;;;;;;4.50;2.83;;;;;;;4.03;42.52;97579.50;6270278;28;20234;-36
2023/03/18 03:15:51;;;;;;;3.37;2.60;;;;;;;3.98;43.01;97577.47;6271931;28;20244;-37
2023/03/18 03:18:53;;;;;;;5.40;2.53;;;;;;;3.96;43.25;97590.06;6268776;28;20230;-36
2023/03/18 03:21:55;;;;;;;5.20;2.87;;;;;;;3.80;43.73;97585.19;6265563;28;20363;-36
2023/03/18 03:25:00;;;;;;;4.30;2.40;;;;;;;3.81;44.19;97605.25;6266466;28;20230;-36
2023/03/18 03:28:03;;;;;;;4.47;2.70;;;;;;;3.58;43.96;97574.78;6267562;28;20243;-36
2023/03/18 03:31:05;;;;;;;5.97;3.00;;;;;;;3.52;43.46;97578.22;6268133;28;20323;-36
2023/03/18 03:34:10;;;;;;;4.77;2.63;;;;;;;3.74;43.43;97615.75;6269386;28;20246;-36
2023/03/18 03:37:12;;;;;;;4.50;2.70;;;;;;;3.78;43.24;97614.34;6276146;28;20231;-36
2023/03/18 03:40:17;;;;;;;6.63;2.77;;;;;;;3.79;44.11;97628.31;6291519;28;20321;-38
2023/03/18 03:43:20;;;;;;;4.50;2.90;;;;;;;3.64;44.91;97628.50;6291330;28;20318;-36
2023/03/18 03:46:22;;;;;;;8.00;3.40;;;;;;;3.66;43.92;97634.41;6294152;28;20248;-37
2023/03/18 03:49:24;;;;;;;4.97;2.97;;;;;;;3.63;44.56;97645.31;6271030;28;20222;-37
2023/03/18 03:52:27;;;;;;;4.10;2.33;;;;;;;3.57;44.79;97646.94;6278587;28;20233;-36
2023/03/18 03:55:30;;;;;;;6.67;2.80;;;;;;;3.57;44.63;97646.13;6290464;28;20229;-36
2023/03/18 03:58:33;;;;;;;4.73;2.50;;;;;;;3.55;45.90;97648.97;6292362;28;20250;-37
2023/03/18 04:01:35;;;;;;;4.03;2.40;;;;;;;3.50;45.87;97653.19;6271089;28;20238;-36
2023/03/18 04:04:37;;;;;;;4.57;2.60;;;;;;;3.26;46.67;97649.25;6275168;28;20372;-36
2023/03/18 04:07:42;;;;;;;4.47;2.47;;;;;;;2.61;46.89;97567.16;6279259;28;20233;-36
2023/03/18 04:10:45;;;;;;;3.53;2.20;;;;;;;3.16;47.05;97675.13;6273401;28;20235;-37
2023/03/18 04:13:48;;;;;;;5.63;2.20;;;;;;;3.09;46.88;97667.16;6274043;28;20370;-37
2023/03/18 04:16:50;;;;;;;4.47;2.70;;;;;;;3.01;47.26;97662.09;6274645;28;20229;-36
2023/03/18 04:19:53;;;;;;;6.00;2.77;;;;;;;2.74;47.22;97638.22;6268806;28;20605;-36
2023/03/18 04:23:01;;;;;;;3.80;2.53;;;;;;;2.79;47.64;97658.69;6271911;28;20269;-36
2023/03/18 04:26:04;;;;;;;5.23;2.67;;;;;;;2.77;47.02;97664.16;6295458;28;20231;-36
2023/03/18 04:29:07;;;;;;;5.17;2.50;;;;;;;2.68;47.70;97664.50;6271826;28;20440;-36
2023/03/18 04:32:10;;;;;;;3.43;2.30;;;;;;;2.47;48.39;97654.84;6292379;28;20232;-36
2023/03/18 04:35:15;;;;;;;4.67;2.70;;;;;;;2.45;49.15;97668.16;6289442;28;20241;-36
2023/03/18 04:38:18;;;;;;;4.07;2.57;;;;;;;2.22;50.41;97657.88;6276478;28;20655;-37
2023/03/18 04:41:24;;;;;;;5.17;2.60;;;;;;;2.12;50.22;97664.44;6273248;28;20232;-36
2023/03/18 04:44:28;;;;;;;4.63;2.27;;;;;;;2.03;51.06;97671.66;6260434;28;20240;-36
2023/03/18 04:47:33;;;;;;;4.03;2.50;;;;;;;2.03;50.10;97680.34;6273999;28;20706;-36
2023/03/18 04:50:36;;;;;;;4.60;2.47;;;;;;;1.94;51.19;97680.66;6288811;28;20244;-36
2023/03/18 04:53:42;;;;;;;3.80;2.80;;;;;;;1.82;51.33;97680.31;6273626;28;20228;-36
2023/03/18 04:56:45;;;;;;;3.80;2.83;;;;;;;1.58;52.02;97644.72;6273814;28;20765;-35
2023/03/18 04:59:48;;;;;;;7.27;2.77;;;;;;;1.59;52.73;97688.34;6295594;28;20235;-36
2023/03/18 05:02:50;;;;;;;5.30;2.67;;;;;;;1.55;52.90;97673.97;6273538;28;20224;-36
2023/03/18 05:05:55;;;;;;;4.37;2.67;;;;;;;1.52;52.54;97672.50;6274464;28;20225;-36
2023/03/18 05:09:07;;;;;;;6.43;2.93;;;;;;;1.48;52.72;97679.16;6274087;28;20255;-35
2023/03/18 05:12:12;;;;;;;4.10;2.90;;;;;;;1.35;53.18;97683.41;6272016;28;20284;-36
2023/03/18 05:15:14;;;;;;;4.83;2.67;;;;;;;1.31;53.34;97685.59;6288919;28;20207;-35
2023/03/18 05:18:23;;;;;;;5.03;2.93;;;;;;;1.33;53.13;97677.50;6275226;28;20359;-36
2023/03/18 05:21:27;;;;;;;4.37;2.60;;;;;;;1.34;53.27;97689.66;6271970;28;20651;-35
2023/03/18 05:24:32;;;;;;;4.33;2.67;;;;;;;1.37;52.96;97692.72;6269384;28;20696;-36
2023/03/18 05:27:35;;;;;;;4.73;2.80;;;;;;;1.28;54.14;97693.81;6269818;28;20226;-36
2023/03/18 05:30:44;;;;;;;4.37;2.27;;;;;;;1.10;53.85;97669.78;6269219;28;20714;-36
2023/03/18 05:33:49;;;;;;;5.70;2.60;;;;;;;1.28;54.39;97705.16;6271650;28;20222;-36
2023/03/18 05:36:52;;;;;;;5.53;2.67;;;;;;;1.27;54.51;97700.06;6271984;28;20247;-36
2023/03/18 05:39:55;;;;;;;4.43;2.20;;;;;;;1.29;54.63;97708.59;6271401;28;20238;-36
2023/03/18 05:42:58;;;;;;;3.77;2.60;;;;;;;1.32;54.85;97700.31;6270055;28;20253;-36
2023/03/18 05:46:10;;;;;;;5.07;2.77;;;;;;;1.36;55.08;97695.53;6271367;28;20218;-36
2023/03/18 05:49:28;;;;;;;4.87;2.97;;;;;;;1.48;54.61;97697.53;6272773;28;20229;-36
2023/03/18 05:52:46;;;;;;;4.03;2.53;;;;;;;1.60;54.54;97705.72;6291061;28;20352;-36
2023/03/18 05:55:55;;;;;;;4.73;2.60;;;;;;;1.74;54.02;97704.06;6272005;28;20734;-35
2023/03/18 05:58:57;;;;;;;4.13;2.47;;;;;;;1.95;53.10;97717.22;6270845;28;20239;-37
2023/03/18 06:02:06;;;;;;;3.20;2.37;;;;;;;2.20;52.97;97714.25;6274660;28;20606;-35
2023/03/18 06:05:09;;;;;;;3.50;2.53;;;;;;;2.36;52.26;97716.59;6271821;28;20242;-36
2023/03/18 06:08:11;;;;;;;4.47;2.27;;;;;;;2.40;52.42;97714.44;6290167;28;20226;-35
2023/03/18 06:11:14;;;;;;;3.47;2.57;;;;;;;2.53;51.94;97725.06;6289064;28;20235;-35
2023/03/18 06:14:17;;;;;;;3.73;2.60;;;;;;;2.61;52.15;97734.63;6268053;28;20222;-36
2023/03/18 06:17:20;;;;;;;3.63;2.47;;;;;;;2.65;51.39;97726.16;6288892;28;20244;-35
2023/03/18 06:20:22;;;;;;;4.27;2.23;;;;;;;2.74;51.83;97727.66;6268318;28;20233;-36
2023/03/18 06:23:24;;;;;;;5.50;2.80;;;;;;;2.77;51.01;97732.56;6274091;28;20283;-37
2023/03/18 06:26:27;;;;;;;5.63;2.43;;;;;;;2.78;51.35;97733.34;6273192;28;20233;-36
2023/03/18 06:29:29;;;;;;;4.03;2.40;;;;;;;2.81;51.00;97735.63;6270855;28;20232;-36
2023/03/18 06:32:39;;;;;;;3.80;2.40;;;;;;;2.76;51.67;97730.13;6275023;28;20233;-36
2023/03/18 06:35:41;;;;;;;3.17;2.60;;;;;;;2.91;50.79;97735.28;6271110;28;20217;-35
2023/03/18 06:38:43;;;;;;;3.27;2.33;;;;;;;3.12;49.60;97742.31;6287234;28;20719;-35
2023/03/18 06:41:46;;;;;;;3.47;2.60;;;;;;;3.31;49.83;97744.25;6271313;28;20227;-35
2023/03/18 06:45:05;;;;;;;3.07;2.47;;;;;;;3.45;49.45;97755.66;6290531;28;20229;-35
2023/03/18 06:48:35;;;;;;;3.70;2.83;;;;;;;3.48;48.63;97734.19;6285490;28;20310;-35
2023/03/18 06:51:37;;;;;;;3.43;2.63;;;;;;;3.70;48.46;97743.63;6293098;28;20737;-35
2023/03/18 06:54:40;;;;;;;3.97;2.80;;;;;;;3.81;49.23;97745.69;6270072;28;20240;-36
2023/03/18 06:57:44;;;;;;;5.30;2.90;;;;;;;3.94;48.98;97752.84;6271671;28;20263;-36
2023/03/18 07:00:49;;;;;;;4.53;2.80;;;;;;;3.99;48.79;97749.59;6277182;28;20324;-35
2023/03/18 07:03:57;;;;;;;5.40;3.23;;;;;;;4.21;46.63;97755.56;6271383;28;20321;-36
2023/03/18 07:07:04;;;;;;;4.00;3.00;;;;;;;4.37;46.52;97750.72;6269046;28;20223;-35
2023/03/18 07:10:16;;;;;;;3.63;3.07;;;;;;;4.63;45.22;97757.03;6285792;28;20316;-36
2023/03/18 07:13:18;;;;;;;4.50;3.03;;;;;;;4.89;43.85;97757.06;6269440;28;20755;-36
2023/03/18 07:16:20;;;;;;;5.13;3.10;;;;;;;5.12;43.06;97758.44;6290718;28;20234;-35
2023/03/18 07:19:23;;;;;;;4.80;3.43;;;;;;;5.29;43.16;97758.84;6300103;28;20230;-36
2023/03/18 07:22:25;;;;;;;5.83;3.50;;;;;;;5.42;42.33;97758.84;6296703;28;20238;-36
2023/03/18 07:25:30;;;;;;;8.03;3.93;;;;;;;5.63;41.19;97765.69;6277486;28;20625;-37
2023/03/18 07:28:32;;;;;;;5.20;3.30;;;;;;;5.87;40.65;97759.72;6273674;28;20222;-37
2023/03/18 07:31:35;;;;;;;6.50;3.70;;;;;;;5.97;39.93;97729.41;6275921;28;20230;-37
2023/03/18 07:34:38;;;;;;;6.57;3.53;;;;;;;6.48;38.48;97766.34;6293475;28;20232;-37
2023/03/18 07:37:41;;;;;;;6.60;4.03;;;;;;;6.89;38.63;97771.13;6290756;28;20241;-37
2023/03/18 07:40:42;;;;;;;5.07;3.77;;;;;;;7.28;37.59;97766.50;6292361;28;20235;-38
2023/03/18 07:43:45;;;;;;;6.57;4.10;;;;;;;7.81;35.73;97767.81;6292800;28;20263;-37
2023/03/18 07:46:47;;;;;;;6.40;4.17;;;;;;;8.51;34.94;97753.03;6291564;28;20232;-37
2023/03/18 07:49:50;;;;;;;6.07;3.67;;;;;;;9.66;32.78;97759.72;6296588;28;20230;-38
2023/03/18 07:52:52;;;;;;;5.27;3.93;;;;;;;9.82;31.32;97697.00;6295095;28;20219;-37
2023/03/18 07:55:54;;;;;;;7.23;3.77;;;;;;;11.08;30.01;97774.91;6291545;28;20237;-38
2023/03/18 07:58:57;;;;;;;6.07;4.13;;;;;;;11.77;28.86;97779.09;6275939;28;20332;-37
2023/03/18 08:02:00;;;;;;;6.70;3.90;;;;;;;12.39;28.17;97778.81;6276736;28;20423;-37
2023/03/18 08:05:05;;;;;;;5.47;3.77;;;;;;;14.04;25.80;97783.31;6293009;28;20314;-37
2023/03/18 08:08:08;;;;;;;6.30;3.90;;;;;;;15.25;23.97;97783.03;6289368;28;20371;-37
2023/03/18 08:11:11;;;;;;;7.43;4.50;;;;;;;14.38;25.09;97786.41;6295727;28;20236;-37
2023/03/18 08:14:13;;;;;;;6.60;4.10;;;;;;;15.14;24.58;97787.63;6290252;28;20230;-37
2023/03/18 08:17:15;;;;;;;5.10;3.40;;;;;;;16.22;23.26;97789.03;6294226;28;20229;-37
2023/03/18 08:20:18;;;;;;;6.03;4.17;;;;;;;16.65;22.63;97794.72;6294063;28;20261;-35
2023/03/18 08:23:20;;;;;;;6.03;4.03;;;;;;;16.83;22.48;97799.47;6296054;28;20245;-36
2023/03/18 08:29:52;;;;;;;5.83;4.03;;;;;;;15.43;22.31;97795.94;3077240;23;20230;-36
2023/03/18 08:32:54;;;;;;;4.90;3.80;;;;;;;15.58;23.33;97798.59;6143743;28;20714;-37
2023/03/18 08:35:58;;;;;;;6.40;4.10;;;;;;;15.51;23.03;97806.09;6147754;28;20225;-36
2023/03/18 08:39:00;;;;;;;7.60;4.40;;;;;;;15.79;23.26;97802.06;6151037;28;20248;-37
2023/03/18 08:42:03;;;;;;;6.63;4.47;;;;;;;15.91;22.53;97813.34;6145896;28;20297;-37
2023/03/18 08:45:06;;;;;;;4.67;4.07;;;;;;;15.83;22.58;97803.13;6144471;28;20218;-37
2023/03/18 08:48:09;;;;;;;4.83;3.83;;;;;;;14.80;23.57;97798.84;6145159;28;20314;-36
2023/03/18 08:51:11;;;;;;;6.23;4.40;;;;;;;13.65;25.35;97798.91;6145116;28;20308;-36
2023/03/18 08:54:13;;;;;;;5.23;4.23;;;;;;;13.03;25.97;97802.16;6145368;28;20222;-36
2023/03/18 08:57:16;;;;;;;13.50;4.30;;;;;;;12.48;27.49;97805.91;6145863;28;20300;-36
2023/03/18 09:00:20;;;;;;;5.60;4.30;;;;;;;12.00;28.98;97812.81;6146300;28;20240;-36
2023/03/18 09:03:23;;;;;;;8.57;4.60;;;;;;;11.55;29.38;97808.41;6145439;28;20360;-36
2023/03/18 09:06:26;;;;;;;8.90;4.90;;;;;;;11.46;29.32;97802.69;6141132;28;20245;-36
2023/03/18 09:09:28;;;;;;;5.70;4.13;;;;;;;11.49;29.83;97802.19;6146868;28;20251;-36
2023/03/18 09:12:45;;;;;;;8.00;4.67;;;;;;;11.05;30.58;97799.38;6147781;28;20229;-37
2023/03/18 09:15:47;;;;;;;8.93;5.23;;;;;;;10.94;30.49;97789.63;6144590;28;20243;-36
2023/03/18 09:18:49;;;;;;;9.33;5.17;;;;;;;11.14;30.62;97802.47;6147920;28;20311;-36
2023/03/18 09:21:51;;;;;;;6.27;4.37;;;;;;;10.83;30.29;97748.63;6142873;28;20252;-37
2023/03/18 09:24:53;;;;;;;9.60;5.13;;;;;;;11.34;30.75;97794.78;6144613;28;20239;-37
2023/03/18 09:27:55;;;;;;;6.27;4.50;;;;;;;11.31;29.74;97800.59;6149807;28;20246;-35
2023/03/18 09:30:58;;;;;;;9.00;4.53;;;;;;;11.05;30.71;97802.06;6143032;28;20642;-35
2023/03/18 09:34:00;;;;;;;7.83;5.30;;;;;;;11.31;30.59;97794.44;6147803;28;20255;-36
2023/03/18 09:37:03;;;;;;;7.37;4.90;;;;;;;11.81;31.00;97802.38;6147865;28;20239;-35
2023/03/18 09:40:07;;;;;;;7.23;5.17;;;;;;;12.05;29.08;97789.63;6143350;28;20261;-37
2023/03/18 09:43:40;;;;;;;9.80;5.90;;;;;;;12.26;28.89;97796.03;6145999;28;20243;-36
2023/03/18 09:47:08;;;;;;;7.27;4.97;;;;;;;12.68;30.03;97784.72;6143159;28;20266;-36
2023/03/18 09:50:40;;;;;;;8.13;4.53;;;;;;;13.07;27.75;97779.19;6150724;28;20228;-37
2023/03/18 09:53:53;;;;;;;7.57;5.23;;;;;;;13.01;27.85;97797.06;6143117;28;20243;-37
2023/03/18 09:56:55;;;;;;;6.70;5.23;;;;;;;13.41;27.51;97772.53;6142260;28;20736;-36
2023/03/18 10:00:19;;;;;;;7.23;5.63;;;;;;;13.45;26.01;97750.59;6145770;28;20297;-36
2023/03/18 10:03:34;;;;;;;8.80;5.73;;;;;;;13.80;26.62;97780.25;6142304;28;20227;-36
2023/03/18 10:06:41;;;;;;;7.10;5.17;;;;;;;14.12;26.46;97774.78;6143051;28;20226;-37
2023/03/18 10:10:06;;;;;;;9.00;5.07;;;;;;;14.45;26.06;97778.91;6145260;28;20238;-36
2023/03/18 10:13:53;;;;;;;7.73;5.30;;;;;;;14.61;25.35;97779.78;6143034;28;20241;-37
2023/03/18 10:17:08;;;;;;;7.27;5.03;;;;;;;14.61;25.55;97779.78;6142696;28;20238;-36
2023/03/18 10:20:31;;;;;;;6.03;4.80;;;;;;;14.86;25.37;97778.19;6146805;28;20734;-36
2023/03/18 10:24:04;;;;;;;7.63;5.23;;;;;;;15.22;25.20;97774.47;6137619;28;20602;-36
2023/03/18 10:27:18;;;;;;;8.60;5.53;;;;;;;15.38;24.09;97777.13;6145209;28;20598;-36
2023/03/18 10:30:35;;;;;;;7.73;5.63;;;;;;;15.47;24.16;97778.22;6143824;28;20294;-36
2023/03/18 10:33:58;;;;;;;9.93;6.00;;;;;;;15.35;24.00;97794.56;6143559;28;20682;-36
2023/03/18 10:37:09;;;;;;;8.80;5.33;;;;;;;14.80;24.76;97772.03;6143919;28;20713;-36
2023/03/18 10:40:17;;;;;;;9.10;5.50;;;;;;;14.85;25.76;97773.91;6142421;28;20250;-36
2023/03/18 10:43:24;;;;;;;8.43;5.90;;;;;;;14.55;25.31;97778.16;6143832;28;20234;-36
2023/03/18 10:46:26;;;;;;;7.57;5.53;;;;;;;14.80;25.77;97772.03;6145349;28;20248;-36
2023/03/18 10:49:34;;;;;;;8.00;5.20;;;;;;;15.32;24.99;97772.81;6143135;28;20302;-36
2023/03/18 10:52:47;;;;;;;8.30;5.13;;;;;;;15.64;25.23;97778.72;6144674;28;20604;-36
2023/03/18 10:56:03;;;;;;;8.77;6.33;;;;;;;15.47;25.52;97783.56;6145935;28;20242;-36
2023/03/18 10:59:16;;;;;;;9.57;5.93;;;;;;;15.32;25.04;97780.88;6147104;28;20635;-37
2023/03/18 11:02:33;;;;;;;8.13;5.70;;;;;;;15.77;24.31;97779.25;6153101;28;20242;-37
2023/03/18 11:05:36;;;;;;;10.07;5.53;;;;;;;15.95;24.82;97757.94;6148163;28;20246;-37
2023/03/18 11:08:39;;;;;;;9.53;5.93;;;;;;;15.70;23.90;97780.31;6147987;28;20238;-37
2023/03/18 11:11:43;;;;;;;9.17;5.87;;;;;;;15.47;24.90;97732.56;6144483;28;20241;-37
2023/03/18 11:14:49;;;;;;;8.60;5.40;;;;;;;15.06;25.59;97743.31;6154524;28;20230;-37
2023/03/18 11:17:58;;;;;;;8.47;5.90;;;;;;;15.35;24.88;97767.72;6148393;28;20238;-37
2023/03/18 11:21:03;;;;;;;9.80;6.20;;;;;;;15.66;24.09;97773.06;6146918;28;20272;-37
2023/03/18 11:24:34;;;;;;;6.83;5.57;;;;;;;15.62;24.23;97767.44;6136868;28;20321;-36
2023/03/18 11:27:40;;;;;;;7.13;5.30;;;;;;;15.73;24.87;97760.19;6146771;28;20238;-45
2023/03/18 11:30:51;;;;;;;9.00;6.07;;;;;;;15.64;24.34;97761.81;6147071;28;20635;-36
2023/03/18 11:33:57;;;;;;;9.53;5.57;;;;;;;15.70;24.48;97752.66;6147373;28;20727;-36
2023/03/18 11:37:07;;;;;;;8.23;5.93;;;;;;;15.76;24.89;97748.06;6148307;28;20727;-36
2023/03/18 11:40:17;;;;;;;8.93;6.07;;;;;;;15.84;24.54;97744.84;6146234;28;20381;-37
2023/03/18 11:43:21;;;;;;;8.50;5.90;;;;;;;15.71;25.93;97748.91;6148041;28;20238;-36
2023/03/18 11:46:26;;;;;;;8.77;6.03;;;;;;;15.71;24.90;97732.78;6144522;28;20317;-37
2023/03/18 11:49:30;;;;;;;10.17;6.03;;;;;;;15.72;24.96;97729.03;6143289;28;20276;-36
2023/03/18 11:52:53;;;;;;;9.60;5.87;;;;;;;15.81;25.76;97731.94;6146594;28;20238;-36
2023/03/18 11:56:17;;;;;;;12.77;6.20;;;;;;;15.71;24.57;97730.94;6145350;28;20239;-36
2023/03/18 11:59:26;;;;;;;11.27;6.70;;;;;;;15.46;24.60;97739.78;6144203;28;20604;-36
2023/03/18 12:02:41;;;;;;;11.10;6.90;;;;;;;15.38;25.15;97721.56;6143437;28;20234;-36
2023/03/18 12:05:58;;;;;;;11.10;5.93;;;;;;;15.36;25.15;97718.34;6144997;28;20270;-36
2023/03/18 12:09:22;;;;;;;9.20;6.30;;;;;;;15.13;25.55;97718.94;6149786;28;20234;-37
2023/03/18 12:12:52;;;;;;;9.70;6.23;;;;;;;14.92;26.01;97712.75;6135750;28;20238;-36
2023/03/18 12:16:09;;;;;;;10.20;6.43;;;;;;;15.12;25.93;97710.06;6146033;28;20740;-37
2023/03/18 12:20:03;;;;;;;8.17;5.97;;;;;;;15.23;25.47;97703.63;6146373;28;20242;-37
2023/03/18 12:23:47;;;;;;;9.33;6.10;;;;;;;15.35;26.42;97697.94;6145926;28;20234;-37
2023/03/18 12:27:04;;;;;;;8.20;5.87;;;;;;;15.28;25.68;97691.25;6148359;28;20548;-37
2023/03/18 12:30:22;;;;;;;9.97;6.67;;;;;;;15.51;27.62;97692.53;6145006;28;20238;-38
2023/03/18 12:33:31;;;;;;;8.70;6.33;;;;;;;15.65;26.27;97691.72;6144928;28;20264;-36
2023/03/18 12:36:54;;;;;;;8.70;6.10;;;;;;;15.76;25.63;97691.66;6144681;28;20325;-36
2023/03/18 12:40:28;;;;;;;9.83;5.93;;;;;;;15.48;25.40;97685.84;6144284;28;20770;-36
2023/03/18 12:44:02;;;;;;;8.30;5.90;;;;;;;15.54;25.76;97687.44;6147906;28;20713;-37
2023/03/18 12:47:36;;;;;;;9.13;6.73;;;;;;;15.38;26.59;97699.28;6079652;29;20830;-37
2023/03/18 12:51:06;;;;;;;9.03;6.70;;;;;;;15.37;25.97;97694.97;6079607;29;20699;-37
2023/03/18 12:54:17;;;;;;;8.13;6.43;;;;;;;15.48;25.77;97692.00;6082816;29;20698;-37
2023/03/18 12:57:41;;;;;;;7.93;5.27;;;;;;;15.58;26.29;97693.88;6079981;29;20208;-44
2023/03/18 13:00:53;;;;;;;8.53;6.17;;;;;;;15.48;25.91;97693.91;6083104;29;20263;-39
2023/03/18 13:04:01;;;;;;;9.13;6.10;;;;;;;15.42;25.73;97689.63;6077475;29;20819;-36
2023/03/18 13:07:20;;;;;;;10.47;6.10;;;;;;;15.41;26.29;97683.41;6083399;29;20329;-43
2023/03/18 13:10:23;;;;;;;7.47;5.87;;;;;;;15.36;25.79;97670.03;6082076;29;20234;-36
2023/03/18 13:13:28;;;;;;;10.43;6.33;;;;;;;15.29;26.08;97679.44;6080940;29;20384;-36
2023/03/18 13:16:34;;;;;;;9.50;6.23;;;;;;;15.41;26.10;97682.63;6078144;29;20758;-36
2023/03/18 13:19:38;;;;;;;9.10;6.53;;;;;;;15.32;26.16;97679.72;6081762;29;20839;-36
2023/03/18 13:22:46;;;;;;;9.90;6.13;;;;;;;15.27;26.13;97677.03;6070578;28;20326;-36
2023/03/18 13:26:12;;;;;;;11.10;6.33;;;;;;;15.12;26.00;97667.16;6145779;28;20698;-37
2023/03/18 13:29:27;;;;;;;9.30;6.43;;;;;;;15.21;26.27;97673.53;6145031;28;20239;-46
2023/03/18 13:32:37;;;;;;;8.30;5.80;;;;;;;15.10;26.43;97671.16;6140750;28;20227;-38
2023/03/18 13:35:57;;;;;;;8.10;5.57;;;;;;;15.26;26.46;97671.94;6151192;28;20241;-37
2023/03/18 13:39:08;;;;;;;9.00;6.37;;;;;;;15.20;26.03;97674.63;6142478;28;20607;-37
2023/03/18 13:42:32;;;;;;;10.27;6.10;;;;;;;15.18;26.54;97671.41;6144309;28;20242;-37
2023/03/18 13:45:45;;;;;;;8.40;5.83;;;;;;;15.04;26.29;97648.91;6129841;28;20316;-37
2023/03/18 13:48:52;;;;;;;7.83;5.63;;;;;;;15.04;26.30;97680.31;6142009;28;20245;-36
2023/03/18 13:51:56;;;;;;;8.63;5.70;;;;;;;15.18;25.81;97667.94;6142982;28;20600;-36
2023/03/18 13:55:03;;;;;;;9.60;5.40;;;;;;;15.33;25.89;97678.63;6143297;28;20312;-37
2023/03/18 13:58:15;;;;;;;7.03;5.67;;;;;;;15.36;26.05;97669.22;6142878;28;20741;-37
2023/03/18 14:01:31;;;;;;;7.43;5.27;;;;;;;15.25;25.97;97630.88;6143523;28;20281;-37
2023/03/18 14:04:46;;;;;;;7.40;5.47;;;;;;;15.33;26.32;97656.34;6142256;28;20253;-37
2023/03/18 14:07:48;;;;;;;6.40;5.00;;;;;;;15.21;26.31;97662.81;6143149;28;20317;-37
2023/03/18 14:11:18;;;;;;;9.67;5.63;;;;;;;14.81;26.03;97639.53;6145872;28;20664;-37
2023/03/18 14:15:01;;;;;;;7.13;4.87;;;;;;;14.93;26.53;97650.81;6146171;28;20238;-37
2023/03/18 14:18:18;;;;;;;6.77;5.43;;;;;;;14.76;26.53;97647.59;6143614;28;20226;-37
2023/03/18 14:21:27;;;;;;;7.60;5.83;;;;;;;14.83;26.78;97652.69;6140081;28;20324;-36
2023/03/18 14:24:29;;;;;;;6.97;5.10;;;;;;;14.78;26.96;97644.63;6146179;28;20234;-35
2023/03/18 14:27:47;;;;;;;6.97;5.60;;;;;;;14.60;26.90;97640.63;6150576;28;20829;-36
2023/03/18 14:31:11;;;;;;;9.37;5.77;;;;;;;14.32;27.32;97644.59;6148265;28;20725;-36
2023/03/18 14:34:16;;;;;;;8.40;5.33;;;;;;;14.35;27.41;97636.84;6161921;28;20814;-36
2023/03/18 14:37:29;;;;;;;7.90;5.40;;;;;;;14.38;27.86;97646.19;6150011;28;20237;-36
2023/03/18 14:40:48;;;;;;;8.93;5.63;;;;;;;14.29;27.27;97639.78;6144579;28;20231;-36
2023/03/18 14:44:20;;;;;;;9.07;5.50;;;;;;;14.27;28.13;97640.03;6149464;28;20772;-36
2023/03/18 14:47:39;;;;;;;8.07;5.23;;;;;;;14.12;27.66;97614.03;6146761;28;20756;-36
2023/03/18 14:50:46;;;;;;;10.30;5.80;;;;;;;14.02;28.29;97630.09;6146308;28;20323;-36
2023/03/18 14:53:54;;;;;;;6.73;5.20;;;;;;;13.92;28.55;97630.88;6146035;28;20930;-36